createdAt,value
2023-10-06T00:01:48.597Z,75.82
2023-10-06T00:04:17.843Z,76.04
2023-10-06T00:06:48.949Z,75.70
2023-10-06T00:09:20.082Z,77.18
2023-10-06T00:11:46.960Z,78.29
2023-10-06T00:14:13.885Z,76.90
2023-10-06T00:16:48.776Z,75.70
2023-10-06T00:19:17.015Z,76.39
2023-10-06T00:21:46.661Z,75.98
2023-10-06T00:24:13.500Z,75.87
2023-10-06T00:26:40.291Z,75.62
2023-10-06T00:29:14.950Z,75.74
2023-10-06T00:31:44.650Z,77.33
2023-10-06T00:34:14.478Z,77.53
2023-10-06T00:36:49.877Z,76.94
2023-10-06T00:39:17.444Z,77.00
2023-10-06T00:41:44.432Z,76.48
2023-10-06T00:44:11.254Z,75.44
2023-10-06T00:46:51.238Z,77.02
2023-10-06T00:49:25.320Z,76.94
2023-10-06T00:51:53.801Z,77.07
2023-10-06T00:54:21.574Z,76.63
2023-10-06T00:56:48.497Z,76.73
2023-10-06T00:59:19.853Z,76.11
2023-10-06T01:01:46.776Z,76.44
2023-10-06T01:04:13.583Z,75.51
2023-10-06T01:06:40.461Z,75.73
2023-10-06T01:09:09.787Z,76.37
2023-10-06T01:11:50.469Z,76.62
2023-10-06T01:14:24.800Z,76.73
2023-10-06T01:16:52.029Z,76.60
2023-10-06T01:19:19.224Z,76.57
2023-10-06T01:21:53.041Z,77.42
2023-10-06T01:24:26.234Z,77.51
2023-10-06T01:27:04.846Z,78.82
2023-10-06T01:29:35.134Z,77.49
2023-10-06T01:32:04.115Z,78.27
2023-10-06T01:34:37.329Z,77.08
2023-10-06T01:37:04.369Z,76.71
2023-10-06T01:39:32.759Z,77.34
2023-10-06T01:41:59.729Z,77.55
2023-10-06T01:44:26.748Z,76.52
2023-10-06T01:47:02.025Z,75.83
2023-10-06T01:49:29.480Z,75.50
2023-10-06T01:52:08.791Z,75.82
2023-10-06T01:54:36.576Z,77.00
2023-10-06T01:57:07.245Z,80.00
2023-10-06T01:59:34.472Z,81.38
2023-10-06T02:02:01.296Z,81.03
2023-10-06T02:04:28.218Z,80.98
2023-10-06T02:06:55.069Z,81.53
2023-10-06T02:09:30.152Z,85.79
2023-10-06T02:11:57.602Z,86.50
2023-10-06T02:14:24.456Z,87.53
2023-10-06T02:16:51.297Z,87.88
2023-10-06T02:19:25.190Z,90.40
2023-10-06T02:21:52.805Z,90.49
2023-10-06T02:24:19.602Z,90.30
2023-10-06T02:26:46.542Z,91.46
2023-10-06T02:29:13.397Z,91.44
2023-10-06T02:31:40.742Z,90.29
2023-10-06T02:34:15.906Z,87.74
2023-10-06T02:36:50.941Z,85.10
2023-10-06T02:39:17.811Z,86.99
2023-10-06T02:41:48.039Z,87.40
2023-10-06T02:44:22.979Z,83.85
2023-10-06T02:46:57.627Z,87.32
2023-10-06T02:49:24.436Z,85.24
2023-10-06T02:51:51.673Z,85.90
2023-10-06T02:54:18.488Z,83.73
2023-10-06T02:56:45.838Z,83.46
2023-10-06T02:59:12.667Z,83.35
2023-10-06T03:01:39.805Z,83.58
2023-10-06T03:04:06.732Z,82.54
2023-10-06T03:06:33.578Z,83.02
2023-10-06T03:09:00.422Z,84.17
2023-10-06T03:11:32.447Z,82.66
2023-10-06T03:13:59.278Z,81.89
2023-10-06T03:16:26.192Z,83.28
2023-10-06T03:19:02.336Z,82.72
2023-10-06T03:21:34.294Z,83.37
2023-10-06T03:24:10.579Z,83.00
2023-10-06T03:26:45.267Z,82.77
2023-10-06T03:29:12.162Z,82.41
2023-10-06T03:31:39.029Z,82.28
2023-10-06T03:34:05.830Z,81.75
2023-10-06T03:36:42.411Z,82.27
2023-10-06T03:39:17.083Z,83.04
2023-10-06T03:41:45.174Z,82.57
2023-10-06T03:44:12.096Z,82.67
2023-10-06T03:46:39.078Z,81.86
2023-10-06T03:49:11.686Z,85.74
2023-10-06T03:51:38.755Z,83.82
2023-10-06T03:54:06.291Z,84.07
2023-10-06T03:56:33.356Z,85.69
2023-10-06T03:59:00.417Z,85.03
2023-10-06T04:01:30.656Z,84.50
2023-10-06T04:04:02.306Z,84.05
2023-10-06T04:06:29.147Z,87.31
2023-10-06T04:08:56.092Z,85.00
2023-10-06T04:11:22.972Z,83.28
2023-10-06T04:13:54.450Z,83.81
2023-10-06T04:16:22.380Z,86.92
2023-10-06T04:18:49.794Z,87.60
2023-10-06T04:21:21.893Z,84.59
2023-10-06T04:23:53.509Z,84.93
2023-10-06T04:26:20.365Z,84.69
2023-10-06T04:28:47.228Z,83.14
2023-10-06T04:31:14.173Z,84.38
2023-10-06T04:33:44.553Z,83.88
2023-10-06T04:36:11.473Z,83.37
2023-10-06T04:38:41.892Z,84.36
2023-10-06T04:41:14.928Z,85.05
2023-10-06T04:43:42.241Z,83.77
2023-10-06T04:46:09.442Z,83.85
2023-10-06T04:48:44.100Z,83.19
2023-10-06T04:51:11.143Z,83.47
2023-10-06T04:53:38.110Z,82.78
2023-10-06T04:56:08.287Z,85.21
2023-10-06T04:58:35.706Z,85.77
2023-10-06T05:01:02.776Z,84.51
2023-10-06T05:03:36.932Z,83.46
2023-10-06T05:06:19.997Z,83.52
2023-10-06T05:08:47.698Z,85.20
2023-10-06T05:11:19.070Z,84.81
2023-10-06T05:13:48.161Z,83.93
2023-10-06T05:16:15.061Z,86.16
2023-10-06T05:18:42.056Z,85.98
2023-10-06T05:21:08.848Z,86.87
2023-10-06T05:23:38.751Z,86.52
2023-10-06T05:26:05.583Z,90.42
2023-10-06T05:28:35.390Z,87.20
2023-10-06T05:31:03.075Z,86.45
2023-10-06T05:33:29.926Z,87.51
2023-10-06T05:35:57.101Z,90.77
2023-10-06T05:38:24.007Z,92.47
2023-10-06T05:40:58.680Z,93.41
2023-10-06T05:43:35.554Z,88.78
2023-10-06T05:46:06.121Z,92.39
2023-10-06T05:48:35.836Z,94.14
2023-10-06T05:51:05.196Z,95.25
2023-10-06T05:53:33.010Z,95.68
2023-10-06T05:56:04.721Z,95.54
2023-10-06T05:58:31.578Z,96.17
2023-10-06T06:00:58.495Z,94.74
2023-10-06T06:03:25.580Z,92.96
2023-10-06T06:05:53.716Z,89.89
2023-10-06T06:08:27.171Z,90.97
2023-10-06T06:10:54.008Z,92.75
2023-10-06T06:13:23.398Z,94.25
2023-10-06T06:15:50.450Z,96.12
2023-10-06T06:18:17.327Z,92.58
2023-10-06T06:20:45.137Z,95.55
2023-10-06T06:23:13.705Z,93.08
2023-10-06T06:25:41.793Z,90.74
2023-10-06T06:28:11.263Z,90.41
2023-10-06T06:30:38.138Z,92.12
2023-10-06T06:33:09.402Z,89.51
2023-10-06T06:35:37.304Z,85.05
2023-10-06T06:38:14.756Z,82.91
2023-10-06T06:40:42.453Z,82.05
2023-10-06T06:43:25.008Z,82.08
2023-10-06T06:45:53.133Z,85.04
2023-10-06T06:48:19.974Z,85.29
2023-10-06T06:50:51.699Z,83.15
2023-10-06T06:53:23.439Z,80.97
2023-10-06T06:55:53.351Z,80.11
2023-10-06T06:58:22.622Z,79.85
2023-10-06T07:00:51.941Z,80.03
2023-10-06T07:03:18.834Z,78.03
2023-10-06T07:05:49.165Z,78.13
2023-10-06T07:08:23.836Z,77.99
2023-10-06T07:10:50.945Z,83.13
2023-10-06T07:13:17.738Z,85.78
2023-10-06T07:15:53.837Z,86.77
2023-10-06T07:18:35.002Z,88.15
2023-10-06T07:21:13.071Z,88.68
2023-10-06T07:23:42.212Z,87.65
2023-10-06T07:26:15.287Z,86.66
2023-10-06T07:28:42.256Z,85.29
2023-10-06T07:31:13.567Z,84.11
2023-10-06T07:33:54.170Z,86.45
2023-10-06T07:36:32.343Z,86.21
2023-10-06T07:39:06.065Z,83.62
2023-10-06T07:41:33.486Z,82.34
2023-10-06T07:44:03.329Z,82.43
2023-10-06T07:46:36.008Z,85.25
2023-10-06T07:49:02.859Z,83.46
2023-10-06T07:51:29.714Z,83.53
2023-10-06T07:54:00.168Z,86.47
2023-10-06T07:56:32.441Z,83.82
2023-10-06T07:58:59.213Z,85.51
2023-10-06T08:01:33.066Z,85.67
2023-10-06T08:03:59.860Z,85.25
2023-10-06T08:06:27.085Z,81.04
2023-10-06T08:08:53.908Z,79.97
2023-10-06T08:11:22.790Z,79.20
2023-10-06T08:13:54.327Z,79.39
2023-10-06T08:16:23.511Z,79.19
2023-10-06T08:18:50.777Z,79.44
2023-10-06T08:21:17.609Z,79.04
2023-10-06T08:23:44.503Z,77.62
2023-10-06T08:26:11.372Z,77.66
2023-10-06T08:28:38.285Z,78.99
2023-10-06T08:31:05.528Z,80.97
2023-10-06T08:33:33.207Z,80.15
2023-10-06T08:36:03.339Z,78.11
2023-10-06T08:38:30.489Z,77.86
2023-10-06T08:41:05.811Z,80.08
2023-10-06T08:43:35.120Z,77.96
2023-10-06T08:46:02.771Z,78.79
2023-10-06T08:48:37.637Z,78.07
2023-10-06T08:51:10.341Z,77.93
2023-10-06T08:53:37.964Z,78.77
2023-10-06T08:56:14.367Z,79.36
2023-10-06T08:58:47.400Z,77.64
2023-10-06T09:01:20.199Z,81.84
2023-10-06T09:03:48.155Z,82.25
2023-10-06T09:06:15.148Z,82.69
2023-10-06T09:08:44.303Z,81.50
2023-10-06T09:11:11.408Z,79.47
2023-10-06T09:13:38.443Z,78.33
2023-10-06T09:16:06.873Z,79.68
2023-10-06T09:18:34.106Z,80.18
2023-10-06T09:21:21.401Z,80.88
2023-10-06T09:23:49.275Z,79.83
2023-10-06T09:26:31.314Z,77.78
2023-10-06T09:29:07.325Z,77.58
2023-10-06T09:31:39.785Z,78.90
2023-10-06T09:34:07.192Z,80.21
2023-10-06T09:36:43.580Z,77.83
2023-10-06T09:39:10.886Z,79.46
2023-10-06T09:41:38.037Z,78.92
2023-10-06T09:44:07.351Z,77.98
2023-10-06T09:46:34.896Z,79.08
2023-10-06T09:49:05.299Z,79.15
2023-10-06T09:51:34.279Z,80.20
2023-10-06T09:54:01.656Z,77.82
2023-10-06T09:56:32.757Z,78.85
2023-10-06T09:59:00.970Z,76.95
2023-10-06T10:01:28.808Z,78.74
2023-10-06T10:03:57.974Z,76.90
2023-10-06T10:06:24.875Z,78.84
2023-10-06T10:08:51.746Z,76.79
2023-10-06T10:11:31.066Z,75.43
2023-10-06T10:14:42.946Z,73.99
2023-10-06T10:17:33.150Z,74.17
2023-10-06T10:20:03.741Z,75.12
2023-10-06T10:22:33.983Z,75.49
2023-10-06T10:25:23.950Z,73.95
2023-10-06T10:28:13.469Z,74.15
2023-10-06T10:31:03.610Z,73.21
2023-10-06T10:33:38.593Z,74.76
2023-10-06T10:36:14.511Z,74.15
2023-10-06T10:38:42.270Z,73.25
2023-10-06T10:41:10.808Z,72.88
2023-10-06T10:43:47.813Z,74.42
2023-10-06T10:46:45.764Z,73.85
2023-10-06T10:49:24.563Z,72.16
2023-10-06T10:52:06.150Z,72.46
2023-10-06T10:54:38.313Z,73.41
2023-10-06T10:57:13.358Z,74.23
2023-10-06T11:00:04.364Z,73.07
2023-10-06T11:03:07.901Z,73.10
2023-10-06T11:05:38.232Z,71.78
2023-10-06T11:08:08.973Z,70.26
2023-10-06T11:10:35.841Z,69.59
2023-10-06T11:13:34.466Z,72.09
2023-10-06T11:16:16.402Z,72.82
2023-10-06T11:18:46.970Z,71.50
2023-10-06T11:21:29.505Z,68.68
2023-10-06T11:24:01.116Z,68.59
2023-10-06T11:26:41.706Z,67.59
2023-10-06T11:29:16.366Z,69.30
2023-10-06T11:31:44.039Z,69.04
2023-10-06T11:34:11.175Z,67.91
2023-10-06T11:36:40.861Z,69.47
2023-10-06T11:39:07.830Z,69.78
2023-10-06T11:41:37.599Z,69.98
2023-10-06T11:44:04.805Z,69.93
2023-10-06T11:46:57.154Z,69.30
2023-10-06T11:49:24.183Z,68.00
2023-10-06T11:51:51.122Z,67.15
2023-10-06T11:54:18.065Z,68.60
2023-10-06T11:56:52.010Z,67.75
2023-10-06T11:59:22.606Z,67.57
2023-10-06T12:01:50.271Z,67.92
2023-10-06T12:04:32.852Z,67.96
2023-10-06T12:06:59.919Z,68.21
2023-10-06T12:09:28.561Z,68.69
2023-10-06T12:11:55.744Z,69.89
2023-10-06T12:14:26.173Z,68.86
2023-10-06T12:16:55.934Z,67.94
2023-10-06T12:19:33.395Z,67.86
2023-10-06T12:22:01.262Z,66.52
2023-10-06T12:24:28.183Z,66.88
2023-10-06T12:26:55.123Z,66.74
2023-10-06T12:29:23.569Z,67.85
2023-10-06T12:31:50.434Z,68.41
2023-10-06T12:34:22.942Z,69.01
2023-10-06T12:36:54.959Z,67.86
2023-10-06T12:39:21.833Z,67.45
2023-10-06T12:41:48.769Z,67.22
2023-10-06T12:44:15.634Z,66.34
2023-10-06T12:46:42.821Z,67.53
2023-10-06T12:49:10.111Z,66.57
2023-10-06T12:51:46.876Z,66.09
2023-10-06T12:54:13.729Z,65.37
2023-10-06T12:56:40.645Z,65.83
2023-10-06T12:59:07.616Z,65.84
2023-10-06T13:01:41.726Z,64.65
2023-10-06T13:04:11.507Z,65.13
2023-10-06T13:06:39.354Z,64.17
2023-10-06T13:09:06.274Z,63.24
2023-10-06T13:11:33.176Z,62.94
2023-10-06T13:14:00.191Z,63.26
2023-10-06T13:16:31.821Z,63.28
2023-10-06T13:18:59.323Z,63.27
2023-10-06T13:21:26.199Z,62.97
2023-10-06T13:23:54.654Z,62.55
2023-10-06T13:26:36.172Z,63.49
2023-10-06T13:29:11.090Z,63.54
2023-10-06T13:31:38.018Z,62.80
2023-10-06T13:34:05.209Z,62.74
2023-10-06T13:36:36.684Z,62.37
2023-10-06T13:39:03.556Z,61.14
2023-10-06T13:41:30.475Z,61.72
2023-10-06T13:43:57.314Z,61.93
2023-10-06T13:46:32.335Z,59.66
2023-10-06T13:48:59.236Z,59.30
2023-10-06T13:51:27.659Z,59.60
2023-10-06T13:53:57.558Z,59.21
2023-10-06T13:56:24.777Z,60.49
2023-10-06T13:58:55.082Z,60.20
2023-10-06T14:01:21.881Z,60.66
2023-10-06T14:03:48.849Z,60.23
2023-10-06T14:06:15.790Z,59.13
2023-10-06T14:08:42.631Z,58.92
2023-10-06T14:11:10.647Z,57.10
2023-10-06T14:13:37.511Z,58.13
2023-10-06T14:16:04.590Z,57.92
2023-10-06T14:18:31.527Z,58.93
2023-10-06T14:20:59.100Z,58.73
2023-10-06T14:23:26.960Z,61.69
2023-10-06T14:25:54.256Z,61.77
2023-10-06T14:28:26.067Z,62.08
2023-10-06T14:30:54.032Z,60.54
2023-10-06T14:33:21.699Z,58.21
2023-10-06T14:35:54.935Z,59.02
2023-10-06T14:38:23.498Z,58.26
2023-10-06T14:41:01.897Z,60.06
2023-10-06T14:43:30.000Z,58.41
2023-10-06T14:45:57.083Z,57.91
2023-10-06T14:48:24.142Z,58.69
2023-10-06T14:51:03.412Z,58.24
2023-10-06T14:53:31.583Z,58.68
2023-10-06T14:55:58.837Z,58.21
2023-10-06T14:58:37.968Z,58.66
2023-10-06T15:01:09.872Z,58.22
2023-10-06T15:03:47.444Z,58.29
2023-10-06T15:06:26.834Z,58.82
2023-10-06T15:09:04.319Z,59.07
2023-10-06T15:11:32.004Z,58.19
2023-10-06T15:14:01.483Z,58.88
2023-10-06T15:16:28.468Z,58.43
2023-10-06T15:18:55.352Z,58.96
2023-10-06T15:21:22.530Z,58.85
2023-10-06T15:23:52.064Z,59.75
2023-10-06T15:26:21.440Z,59.41
2023-10-06T15:28:57.136Z,59.73
2023-10-06T15:31:33.022Z,58.46
2023-10-06T15:34:09.712Z,58.40
2023-10-06T15:36:48.403Z,58.93
2023-10-06T15:39:16.397Z,58.29
2023-10-06T15:41:44.620Z,59.28
2023-10-06T15:44:17.722Z,59.57
2023-10-06T15:46:52.416Z,59.10
2023-10-06T15:49:20.840Z,59.49
2023-10-06T15:51:48.600Z,58.82
2023-10-06T15:54:16.172Z,58.55
2023-10-06T15:56:54.203Z,58.77
2023-10-06T15:59:21.554Z,59.62
2023-10-06T16:01:53.904Z,58.96
2023-10-06T16:04:20.796Z,59.28
2023-10-06T16:06:47.859Z,58.52
2023-10-06T16:09:18.324Z,59.09
2023-10-06T16:11:46.066Z,59.72
2023-10-06T16:14:13.077Z,59.82
2023-10-06T16:16:47.348Z,60.07
2023-10-06T16:19:15.310Z,60.80
2023-10-06T16:21:52.813Z,59.60
2023-10-06T16:24:20.277Z,60.51
2023-10-06T16:26:51.752Z,60.40
2023-10-06T16:29:19.043Z,60.46
2023-10-06T16:31:46.061Z,59.68
2023-10-06T16:34:17.642Z,60.61
2023-10-06T16:36:50.513Z,60.90
2023-10-06T16:39:18.025Z,60.58
2023-10-06T16:41:45.485Z,60.61
2023-10-06T16:44:12.617Z,61.35
2023-10-06T16:46:39.533Z,61.65
2023-10-06T16:49:07.787Z,61.82
2023-10-06T16:51:34.791Z,61.88
2023-10-06T16:54:01.600Z,61.21
2023-10-06T16:56:29.614Z,61.24
2023-10-06T16:58:56.498Z,61.30
2023-10-06T17:01:23.403Z,63.27
2023-10-06T17:03:52.536Z,62.52
2023-10-06T17:06:32.149Z,62.06
2023-10-06T17:09:00.917Z,62.74
2023-10-06T17:11:28.028Z,62.72
2023-10-06T17:14:02.361Z,62.84
2023-10-06T17:16:29.282Z,64.75
2023-10-06T17:18:56.290Z,65.90
2023-10-06T17:21:23.459Z,65.02
2023-10-06T17:23:53.593Z,65.88
2023-10-06T17:26:20.553Z,67.31
2023-10-06T17:28:54.568Z,69.31
2023-10-06T17:31:21.703Z,68.39
2023-10-06T17:33:49.066Z,68.63
2023-10-06T17:36:25.282Z,69.35
2023-10-06T17:38:52.428Z,67.62
2023-10-06T17:41:22.185Z,68.35
2023-10-06T17:43:49.118Z,68.69
2023-10-06T17:46:17.158Z,70.92
2023-10-06T17:48:50.190Z,70.93
2023-10-06T17:51:23.332Z,70.17
2023-10-06T17:53:51.034Z,72.58
2023-10-06T17:56:18.077Z,72.71
2023-10-06T17:58:46.301Z,72.79
2023-10-06T18:01:16.247Z,71.36
2023-10-06T18:03:51.670Z,72.11
2023-10-06T18:06:28.877Z,72.44
2023-10-06T18:08:56.524Z,71.43
2023-10-06T18:11:23.519Z,70.84
2023-10-06T18:13:50.436Z,71.62
2023-10-06T18:16:17.393Z,71.48
2023-10-06T18:18:47.951Z,71.31
2023-10-06T18:21:14.929Z,71.10
2023-10-06T18:23:44.344Z,72.44
2023-10-06T18:26:15.191Z,73.03
2023-10-06T18:28:42.190Z,72.84
2023-10-06T18:31:09.102Z,74.57
2023-10-06T18:33:36.734Z,73.94
2023-10-06T18:36:03.759Z,73.86
2023-10-06T18:38:30.679Z,73.75
2023-10-06T18:41:00.341Z,73.88
2023-10-06T18:43:32.000Z,74.59
2023-10-06T18:45:59.883Z,73.50
2023-10-06T18:48:27.183Z,73.18
2023-10-06T18:51:00.745Z,75.29
2023-10-06T18:53:27.694Z,73.78
2023-10-06T18:55:54.734Z,74.87
2023-10-06T18:58:30.060Z,73.97
2023-10-06T19:01:00.874Z,74.51
2023-10-06T19:03:27.982Z,74.27
2023-10-06T19:06:04.995Z,73.47
2023-10-06T19:08:35.225Z,73.73
2023-10-06T19:11:09.785Z,74.24
2023-10-06T19:13:36.880Z,73.32
2023-10-06T19:16:03.853Z,73.40
2023-10-06T19:18:36.102Z,72.51
2023-10-06T19:21:07.367Z,73.05
2023-10-06T19:23:36.892Z,75.58
2023-10-06T19:26:04.856Z,75.59
2023-10-06T19:28:31.665Z,75.49
2023-10-06T19:30:59.433Z,74.54
2023-10-06T19:33:26.368Z,74.93
2023-10-06T19:35:59.767Z,74.41
2023-10-06T19:38:27.146Z,74.08
2023-10-06T19:40:54.349Z,78.05
2023-10-06T19:43:21.272Z,76.96
2023-10-06T19:45:53.894Z,74.42
2023-10-06T19:48:20.603Z,72.34
2023-10-06T19:50:47.544Z,74.76
2023-10-06T19:53:16.472Z,73.04
2023-10-06T19:55:44.595Z,74.00
2023-10-06T19:58:14.717Z,74.71
2023-10-06T20:00:42.292Z,75.40
2023-10-06T20:03:11.813Z,75.04
2023-10-06T20:05:39.509Z,74.44
2023-10-06T20:08:09.693Z,76.54
2023-10-06T20:10:37.280Z,76.09
2023-10-06T20:13:07.968Z,77.24
2023-10-06T20:15:40.756Z,77.76
2023-10-06T20:18:07.809Z,76.77
2023-10-06T20:20:34.681Z,75.59
2023-10-06T20:23:02.115Z,75.44
2023-10-06T20:25:28.915Z,74.52
2023-10-06T20:27:55.863Z,76.92
2023-10-06T20:30:27.673Z,79.53
2023-10-06T20:32:57.908Z,81.24
2023-10-06T20:35:25.961Z,77.65
2023-10-06T20:37:52.923Z,77.86
2023-10-06T20:40:23.017Z,79.70
2023-10-06T20:42:49.812Z,80.96
2023-10-06T20:45:16.874Z,78.92
2023-10-06T20:47:46.784Z,76.05
2023-10-06T20:50:16.300Z,76.94
2023-10-06T20:52:44.348Z,76.75
2023-10-06T20:55:14.521Z,76.13
2023-10-06T20:57:48.475Z,77.81
2023-10-06T21:00:17.513Z,81.09
2023-10-06T21:02:44.417Z,80.35
2023-10-06T21:05:15.588Z,80.78
2023-10-06T21:07:43.181Z,79.01
2023-10-06T21:10:16.426Z,76.48
2023-10-06T21:12:43.789Z,76.78
2023-10-06T21:15:18.859Z,80.04
2023-10-06T21:17:54.790Z,77.03
2023-10-06T21:20:21.695Z,79.15
2023-10-06T21:22:48.499Z,81.01
2023-10-06T21:25:15.337Z,79.50
2023-10-06T21:27:42.828Z,82.00
2023-10-06T21:30:10.231Z,83.01
2023-10-06T21:32:37.029Z,83.09
2023-10-06T21:35:04.049Z,79.12
2023-10-06T21:37:30.946Z,77.49
2023-10-06T21:39:57.739Z,77.78
2023-10-06T21:42:24.569Z,82.23
2023-10-06T21:44:54.218Z,83.24
2023-10-06T21:47:24.041Z,81.90
2023-10-06T21:49:56.453Z,80.17
2023-10-06T21:52:23.449Z,78.88
2023-10-06T21:54:50.948Z,80.02
2023-10-06T21:57:20.546Z,79.87
2023-10-06T21:59:49.560Z,77.67
2023-10-06T22:02:19.239Z,78.22
2023-10-06T22:04:47.677Z,78.40
2023-10-06T22:07:14.511Z,78.14
2023-10-06T22:09:42.561Z,79.33
2023-10-06T22:12:12.217Z,78.34
2023-10-06T22:14:41.501Z,77.68
2023-10-06T22:17:09.441Z,76.90
2023-10-06T22:19:36.450Z,77.75
2023-10-06T22:22:03.682Z,76.63
2023-10-06T22:24:30.514Z,76.06
2023-10-06T22:26:57.668Z,76.20
2023-10-06T22:29:30.162Z,78.04
2023-10-06T22:31:57.027Z,78.78
2023-10-06T22:34:39.969Z,78.47
2023-10-06T22:37:23.606Z,79.06
2023-10-06T22:39:53.785Z,78.06
2023-10-06T22:42:23.812Z,77.17
2023-10-06T22:44:51.500Z,78.36
2023-10-06T22:47:18.336Z,77.75
2023-10-06T22:49:45.304Z,79.08
2023-10-06T22:52:12.095Z,77.50
2023-10-06T22:54:39.003Z,79.29
2023-10-06T22:57:05.873Z,79.11
2023-10-06T22:59:32.869Z,79.78
2023-10-06T23:01:59.919Z,79.63
2023-10-06T23:04:30.791Z,78.40
2023-10-06T23:07:10.956Z,78.60
2023-10-06T23:09:49.110Z,78.75
2023-10-06T23:12:16.255Z,77.75
2023-10-06T23:14:43.063Z,78.02
2023-10-06T23:17:18.609Z,77.62
2023-10-06T23:19:54.551Z,79.05
2023-10-06T23:22:38.518Z,79.65
2023-10-06T23:25:23.258Z,79.39
2023-10-06T23:27:58.391Z,79.51
2023-10-06T23:30:25.173Z,79.09
2023-10-06T23:33:06.809Z,80.38
2023-10-06T23:35:47.515Z,79.51
2023-10-06T23:38:15.314Z,79.01
2023-10-06T23:40:42.123Z,79.20
2023-10-06T23:43:09.685Z,80.23
2023-10-06T23:45:41.871Z,80.98
2023-10-06T23:48:08.864Z,80.13
2023-10-06T23:50:35.786Z,79.78
2023-10-06T23:53:06.510Z,81.27
2023-10-06T23:55:37.580Z,80.23
2023-10-06T23:58:04.623Z,81.69
